Time;durP1;ratioP1;P1;durP2;ratioP2;P2;SDS_P1;SDS_P2;PMS_P1;PMS_P2;Temp;Humidity;BMP_temperature;BMP_pressure;BME280_temperature;BME280_humidity;BME280_pressure;Samples;Min_cycle;Max_cycle;Signal;HPM_P1;HPM_P2
2022/12/13 00:02:02;;;;;;;17.47;10.93;;;10.30;80.60;;;;;;10290296;28;20208;-95
2022/12/13 00:07:05;;;;;;;22.97;14.23;;;10.00;91.70;;;;;;10308367;28;20206;-93
2022/12/13 00:12:07;;;;;;;23.07;12.67;;;10.70;82.80;;;;;;10310194;28;20260;-93
2022/12/13 00:17:09;;;;;;;24.17;13.77;;;9.90;79.20;;;;;;10306380;28;20391;-94
2022/12/13 00:22:12;;;;;;;16.83;11.47;;;10.90;90.70;;;;;;10303185;28;20228;-93
2022/12/13 00:27:15;;;;;;;22.10;13.07;;;9.20;92.10;;;;;;10306661;28;20269;-93
2022/12/13 00:32:17;;;;;;;18.67;10.97;;;10.90;84.00;;;;;;10309162;28;20265;-92
2022/12/13 00:37:20;;;;;;;21.43;12.90;;;9.50;84.90;;;;;;10306732;28;20212;-92
2022/12/13 00:42:22;;;;;;;20.67;12.50;;;9.20;94.10;;;;;;10304426;28;20282;-93
2022/12/13 00:47:25;;;;;;;18.53;9.87;;;9.90;98.50;;;;;;10306905;28;20203;-92
2022/12/13 00:52:27;;;;;;;10.60;7.97;;;10.50;99.60;;;;;;10309556;28;20228;-93
2022/12/13 00:57:30;;;;;;;11.73;7.20;;;10.50;76.10;;;;;;10312732;28;20210;-94
2022/12/13 01:02:32;;;;;;;14.90;8.50;;;10.30;93.80;;;;;;10308124;28;20206;-92
2022/12/13 01:07:36;;;;;;;16.90;11.00;;;10.00;92.30;;;;;;10307536;28;20209;-94
2022/12/13 01:12:38;;;;;;;11.27;8.10;;;10.00;92.70;;;;;;10322810;28;20182;-92
2022/12/13 01:17:41;;;;;;;18.40;9.37;;;10.50;97.70;;;;;;10321072;28;20208;-93
2022/12/13 01:22:43;;;;;;;16.37;10.20;;;9.90;96.10;;;;;;10331127;28;20215;-92
2022/12/13 01:27:46;;;;;;;16.40;10.40;;;10.10;95.80;;;;;;10346709;28;20187;-93
2022/12/13 01:32:48;;;;;;;13.43;9.23;;;9.60;91.30;;;;;;10346098;28;20215;-92
2022/12/13 01:37:51;;;;;;;14.00;8.20;;;10.60;93.50;;;;;;10363517;28;20296;-92
2022/12/13 01:42:59;;;;;;;11.83;8.63;;;10.50;88.00;;;;;;10359173;28;20223;-92
2022/12/13 01:48:05;;;;;;;15.33;8.83;;;9.90;82.70;;;;;;10305510;28;20214;-91
2022/12/13 01:53:13;;;;;;;13.27;8.13;;;10.40;93.00;;;;;;10305229;28;20186;-91
2022/12/13 01:58:16;;;;;;;12.33;9.20;;;10.40;94.10;;;;;;10317639;28;20215;-93
2022/12/13 02:03:21;;;;;;;13.13;8.87;;;11.00;83.20;;;;;;10345517;28;20186;-92
2022/12/13 02:08:24;;;;;;;10.97;7.90;;;10.20;85.50;;;;;;10345511;28;20178;-92
2022/12/13 02:13:27;;;;;;;11.60;7.27;;;9.30;83.00;;;;;;10346210;28;20182;-92
2022/12/13 02:18:29;;;;;;;11.87;7.53;;;8.50;99.80;;;;;;10344982;28;20216;-92
2022/12/13 02:23:37;;;;;;;11.43;7.13;;;9.70;95.90;;;;;;10345445;28;20198;-91
2022/12/13 02:29:01;;;;;;;13.10;7.90;;;9.50;97.30;;;;;;10346038;28;20166;-92
2022/12/13 02:34:22;;;;;;;7.73;6.23;;;9.40;98.50;;;;;;10344430;28;20192;-92
2022/12/13 02:39:35;;;;;;;8.67;6.63;;;9.00;74.60;;;;;;10343682;28;20325;-92
2022/12/13 02:44:42;;;;;;;9.23;6.53;;;9.80;98.90;;;;;;10344432;28;20203;-92
2022/12/13 02:49:50;;;;;;;8.77;5.97;;;11.10;95.10;;;;;;10343984;28;20205;-92
2022/12/13 02:54:54;;;;;;;9.80;6.60;;;11.00;93.80;;;;;;10345302;28;20214;-92
2022/12/13 03:00:00;;;;;;;10.60;5.30;;;10.30;97.90;;;;;;10354467;28;20551;-92
2022/12/13 03:11:11;;;;;;;8.53;6.20;;;10.60;99.70;;;;;;10343753;28;20177;-91
2022/12/13 03:16:38;;;;;;;7.50;5.53;;;10.40;93.90;;;;;;10342965;28;20205;-93
2022/12/13 03:21:47;;;;;;;8.83;6.43;;;9.70;88.20;;;;;;10343437;28;20201;-92
2022/12/13 03:26:50;;;;;;;7.97;5.90;;;9.40;99.90;;;;;;10313394;28;20260;-92
2022/12/13 03:31:56;;;;;;;6.17;5.10;;;9.90;99.90;;;;;;10311714;28;20247;-92
2022/12/13 03:36:58;;;;;;;7.40;5.13;;;9.80;94.00;;;;;;10311728;28;20232;-92
2022/12/13 03:42:02;;;;;;;7.43;5.37;;;10.90;95.60;;;;;;10307767;28;20232;-92
2022/12/13 03:47:04;;;;;;;7.67;5.20;;;10.70;93.70;;;;;;10306380;28;20251;-93
2022/12/13 03:52:07;;;;;;;5.90;4.83;;;10.90;99.90;;;;;;10305512;28;20686;-92
2022/12/13 03:57:09;;;;;;;5.47;4.77;;;10.10;90.50;;;;;;10307227;28;20233;-93
2022/12/13 04:02:11;;;;;;;4.33;3.90;;;10.70;94.70;;;;;;10307043;28;20201;-92
2022/12/13 04:07:14;;;;;;;7.67;5.03;;;9.80;99.90;;;;;;10308948;28;20247;-92
2022/12/13 04:17:49;;;;;;;7.67;5.60;;;10.30;98.60;;;;;;10307126;28;20287;-91
2022/12/13 04:22:52;;;;;;;6.97;5.27;;;10.90;99.30;;;;;;10307522;28;20206;-93
2022/12/13 04:27:55;;;;;;;5.53;4.17;;;10.60;84.90;;;;;;10308345;28;20231;-93
2022/12/13 04:32:57;;;;;;;6.23;4.37;;;11.10;90.30;;;;;;10317767;28;20245;-93
2022/12/13 04:38:00;;;;;;;8.90;4.63;;;10.50;95.00;;;;;;10306782;28;20208;-92
2022/12/13 04:43:02;;;;;;;6.67;4.17;;;10.40;93.00;;;;;;10314754;28;20284;-93
2022/12/13 04:48:06;;;;;;;3.87;3.10;;;11.00;94.60;;;;;;10297905;28;20208;-92
2022/12/13 04:53:14;;;;;;;6.47;4.03;;;9.70;99.90;;;;;;10297876;28;20209;-93
2022/12/13 04:58:18;;;;;;;4.33;3.37;;;10.10;97.40;;;;;;10297916;28;20232;-93
2022/12/13 05:03:24;;;;;;;6.83;3.43;;;10.00;99.90;;;;;;10297037;28;20211;-92
2022/12/13 05:08:26;;;;;;;5.33;3.63;;;10.80;99.70;;;;;;10298570;28;20193;-92
2022/12/13 05:13:29;;;;;;;7.33;4.60;;;10.50;98.80;;;;;;10296264;28;20228;-93
2022/12/13 05:18:33;;;;;;;6.43;4.97;;;9.90;92.80;;;;;;10297297;28;20222;-92
2022/12/13 05:23:35;;;;;;;6.27;4.63;;;10.00;92.60;;;;;;10297429;28;20205;-92
2022/12/13 05:28:38;;;;;;;5.73;4.40;;;10.40;94.40;;;;;;10296082;28;20197;-93
2022/12/13 05:33:40;;;;;;;5.47;3.50;;;9.90;94.10;;;;;;10297320;28;20263;-92
2022/12/13 05:38:43;;;;;;;4.77;3.00;;;10.50;99.90;;;;;;10296970;28;20221;-92
2022/12/13 05:43:46;;;;;;;4.40;3.77;;;10.90;99.90;;;;;;10295766;28;20232;-92
2022/12/13 05:48:48;;;;;;;4.40;3.57;;;10.10;99.60;;;;;;10295114;28;20278;-93
2022/12/13 05:53:51;;;;;;;7.10;4.03;;;9.20;94.70;;;;;;10291966;28;20268;-92
2022/12/13 05:58:55;;;;;;;4.77;4.03;;;9.70;93.30;;;;;;10305043;28;20287;-93
2022/12/13 06:03:57;;;;;;;4.53;3.40;;;10.40;97.70;;;;;;10272620;28;20562;-92
2022/12/13 06:09:00;;;;;;;5.80;3.67;;;11.50;94.60;;;;;;10288639;28;20627;-92
2022/12/13 06:14:02;;;;;;;6.63;4.23;;;10.90;87.10;;;;;;10289816;28;20221;-91
2022/12/13 06:19:23;;;;;;;5.50;3.93;;;10.20;91.90;;;;;;10289215;28;20255;-93
2022/12/13 06:24:26;;;;;;;5.60;3.00;;;9.80;93.50;;;;;;10289164;28;20221;-93
2022/12/13 06:29:29;;;;;;;4.50;3.87;;;10.70;99.60;;;;;;10287041;28;20268;-95
2022/12/13 06:34:33;;;;;;;5.60;4.70;;;9.80;95.70;;;;;;10276812;28;20229;-96
2022/12/13 06:39:37;;;;;;;4.10;3.50;;;9.00;91.60;;;;;;10272343;28;20258;-93
2022/12/13 06:44:57;;;;;;;5.77;4.40;;;9.90;98.70;;;;;;10274959;28;20230;-94
2022/12/13 06:50:00;;;;;;;4.63;3.10;;;10.00;94.70;;;;;;10277767;28;20276;-95
2022/12/13 06:55:07;;;;;;;4.13;2.73;;;10.00;96.40;;;;;;10287209;28;20256;-95
2022/12/13 07:00:10;;;;;;;3.10;2.80;;;9.90;90.40;;;;;;10286981;28;20593;-95
2022/12/13 07:05:12;;;;;;;4.23;3.23;;;9.40;94.00;;;;;;10289015;28;20668;-95
2022/12/13 07:10:15;;;;;;;5.83;3.87;;;9.90;76.60;;;;;;10303217;28;20198;-96
2022/12/13 07:15:24;;;;;;;4.53;3.57;;;9.30;88.70;;;;;;10287950;28;20245;-96
2022/12/13 07:20:26;;;;;;;4.87;3.03;;;9.80;90.40;;;;;;10288508;28;20210;-96
2022/12/13 07:25:29;;;;;;;3.87;3.47;;;9.50;95.50;;;;;;10288043;28;20205;-96
2022/12/13 07:30:38;;;;;;;6.60;3.80;;;10.00;90.60;;;;;;10287365;28;20286;-95
2022/12/13 07:35:43;;;;;;;4.03;3.10;;;9.30;89.80;;;;;;10287879;28;20299;-93
2022/12/13 07:40:45;;;;;;;7.70;5.20;;;9.60;96.70;;;;;;10287652;28;20237;-94
2022/12/13 07:45:47;;;;;;;7.17;5.10;;;5.10;48.80;;;;;;10289230;28;20565;-87
2022/12/13 07:50:50;;;;;;;4.03;2.93;;;6.90;95.00;;;;;;10287435;28;20221;-87
2022/12/13 07:55:56;;;;;;;5.93;4.20;;;8.90;74.60;;;;;;10286139;28;20276;-87
2022/12/13 08:01:00;;;;;;;3.23;1.97;;;8.90;68.50;;;;;;10284236;28;20263;-89
2022/12/13 08:06:10;;;;;;;10.67;3.07;;;9.90;42.30;;;;;;10285053;28;20995;-90
2022/12/13 08:11:16;;;;;;;1.20;1.10;;;10.40;42.30;;;;;;10268128;28;20314;-91
2022/12/13 08:16:19;;;;;;;2.20;1.70;;;11.00;43.70;;;;;;10279976;28;20255;-90
2022/12/13 08:21:35;;;;;;;4.73;2.30;;;10.80;44.90;;;;;;10273369;28;20218;-91
2022/12/13 08:27:00;;;;;;;3.57;2.33;;;11.40;47.30;;;;;;10259976;28;20268;-91
2022/12/13 08:32:06;;;;;;;3.70;2.83;;;10.00;48.80;;;;;;10273620;28;20243;-91
2022/12/13 08:37:09;;;;;;;4.73;2.70;;;10.10;49.30;;;;;;10259282;28;20310;-91
2022/12/13 08:42:13;;;;;;;3.83;1.83;;;9.70;54.70;;;;;;10262127;28;20258;-91
2022/12/13 08:47:23;;;;;;;8.40;4.20;;;9.90;56.10;;;;;;10271891;28;20286;-91
2022/12/13 08:52:28;;;;;;;5.03;3.30;;;9.50;49.10;;;;;;10275636;28;20221;-91
2022/12/13 08:57:31;;;;;;;10.47;5.10;;;8.90;61.90;;;;;;10268254;28;20328;-92
2022/12/13 09:02:36;;;;;;;5.73;3.87;;;9.00;59.20;;;;;;10273198;28;20238;-91
2022/12/13 09:07:41;;;;;;;2.90;2.53;;;9.80;91.00;;;;;;10264773;28;20230;-89
2022/12/13 09:12:47;;;;;;;4.20;2.70;;;10.50;89.10;;;;;;10270897;28;20269;-90
2022/12/13 09:17:50;;;;;;;3.17;2.40;;;10.30;73.00;;;;;;10269842;28;20260;-91
2022/12/13 09:22:54;;;;;;;3.43;1.87;;;9.80;86.40;;;;;;10271031;28;20229;-91
2022/12/13 09:28:06;;;;;;;3.27;2.40;;;11.10;73.00;;;;;;10260345;28;20233;-91
2022/12/13 09:33:08;;;;;;;4.87;2.80;;;11.50;75.60;;;;;;10263971;28;20240;-91
2022/12/13 09:38:34;;;;;;;2.87;1.73;;;10.40;77.80;;;;;;10262515;28;20783;-91
2022/12/13 09:43:37;;;;;;;2.73;2.20;;;10.30;90.60;;;;;;10290952;28;20297;-91
2022/12/13 09:48:45;;;;;;;3.00;1.83;;;9.80;86.50;;;;;;10264038;28;20631;-92
2022/12/13 09:53:51;;;;;;;2.93;2.17;;;10.40;95.20;;;;;;10261495;28;20650;-91
2022/12/13 09:58:55;;;;;;;2.90;2.60;;;10.90;93.80;;;;;;10274681;28;20245;-91
2022/12/13 10:04:01;;;;;;;4.30;2.50;;;10.70;92.50;;;;;;10266809;28;20288;-91
2022/12/13 10:09:07;;;;;;;2.83;2.13;;;10.90;86.50;;;;;;10267520;28;20293;-91
2022/12/13 10:14:14;;;;;;;3.53;3.00;;;11.00;92.20;;;;;;10265800;28;20653;-91
2022/12/13 10:19:27;;;;;;;5.03;2.90;;;10.20;80.30;;;;;;10284282;28;20308;-90
2022/12/13 10:25:03;;;;;;;4.10;3.20;;;10.00;96.20;;;;;;10263457;28;20236;-91
2022/12/13 10:30:14;;;;;;;4.10;3.03;;;10.90;95.00;;;;;;10275071;28;20213;-91
2022/12/13 10:35:34;;;;;;;5.57;3.67;;;10.20;91.50;;;;;;10254778;28;20571;-91
2022/12/13 10:40:47;;;;;;;4.60;3.67;;;9.30;90.00;;;;;;10268084;28;20237;-91
2022/12/13 10:46:01;;;;;;;3.30;1.90;;;10.10;76.30;;;;;;10253795;28;20251;-91
2022/12/13 10:51:13;;;;;;;2.90;2.63;;;10.50;93.90;;;;;;10256213;28;20199;-92
2022/12/13 10:56:21;;;;;;;2.10;1.70;;;9.70;96.20;;;;;;10267287;28;20311;-90
2022/12/13 11:01:29;;;;;;;8.33;5.03;;;10.80;99.60;;;;;;10283020;28;20236;-89
2022/12/13 11:06:45;;;;;;;6.90;4.17;;;8.70;74.60;;;;;;10275714;28;20235;-87
2022/12/13 11:11:51;;;;;;;5.20;3.03;;;8.50;94.30;;;;;;10271826;28;20271;-88
2022/12/13 11:17:07;;;;;;;4.87;2.27;;;9.30;95.20;;;;;;10272919;28;20760;-88
2022/12/13 11:22:33;;;;;;;3.17;1.77;;;10.10;94.00;;;;;;10275295;28;20287;-87
2022/12/13 11:27:47;;;;;;;0.93;0.90;;;10.40;98.80;;;;;;10276775;28;20287;-88
2022/12/13 11:33:08;;;;;;;5.70;4.53;;;11.40;92.70;;;;;;10269917;28;20244;-88
2022/12/13 11:38:30;;;;;;;8.83;5.57;;;10.20;58.10;;;;;;10275062;28;20264;-87
2022/12/13 11:43:36;;;;;;;3.50;2.73;;;9.50;80.10;;;;;;10267960;28;20655;-87
2022/12/13 11:48:49;;;;;;;8.10;4.67;;;9.90;99.40;;;;;;10264508;28;20279;-87
2022/12/13 11:54:07;;;;;;;3.30;2.67;;;8.90;90.50;;;;;;10276561;28;20237;-87
2022/12/13 11:59:30;;;;;;;4.57;3.27;;;10.10;99.90;;;;;;10269249;28;20249;-88
2022/12/13 12:04:50;;;;;;;4.03;3.33;;;8.40;99.90;;;;;;10269612;28;20240;-90
2022/12/13 12:10:12;;;;;;;3.83;3.13;;;8.10;84.70;;;;;;10266411;28;20234;-90
2022/12/13 12:15:27;;;;;;;4.90;3.07;;;7.90;99.90;;;;;;10275241;28;20300;-89
2022/12/13 12:21:15;;;;;;;8.73;5.77;;;7.70;99.90;;;;;;10264147;28;20882;-89
2022/12/13 12:26:25;;;;;;;7.80;4.73;;;7.70;93.80;;;;;;10260263;28;20249;-89
2022/12/13 12:31:35;;;;;;;13.43;8.53;;;6.00;99.90;;;;;;10269659;28;20268;-89
2022/12/13 12:37:16;;;;;;;2.93;1.73;;;7.10;90.90;;;;;;10258598;28;20257;-88
2022/12/13 12:42:46;;;;;;;8.20;5.57;;;8.40;99.90;;;;;;10270106;28;20257;-89
2022/12/13 12:48:34;;;;;;;5.17;3.97;;;7.90;99.90;;;;;;10276521;28;20651;-89
2022/12/13 12:54:32;;;;;;;5.03;3.47;;;7.00;97.00;;;;;;10275474;28;20241;-89
2022/12/13 13:00:08;;;;;;;4.53;3.70;;;7.10;99.90;;;;;;10277267;28;20243;-89
2022/12/13 13:05:18;;;;;;;6.23;4.37;;;9.10;99.90;;;;;;10270864;28;20222;-89
2022/12/13 13:10:25;;;;;;;7.97;5.03;;;7.90;96.40;;;;;;10257855;28;20237;-89
2022/12/13 13:15:31;;;;;;;9.37;6.60;;;7.40;99.90;;;;;;10262134;28;20293;-89
2022/12/13 13:20:34;;;;;;;5.57;3.97;;;7.80;96.50;;;;;;10269806;28;20254;-89
2022/12/13 13:25:37;;;;;;;3.90;3.27;;;8.10;99.90;;;;;;10271379;28;20267;-89
2022/12/13 13:31:09;;;;;;;8.23;4.80;;;7.80;99.90;;;;;;10269828;28;20272;-86
2022/12/13 13:36:38;;;;;;;12.20;5.47;;;9.10;84.90;;;;;;10276736;28;20225;-86
2022/12/13 13:41:52;;;;;;;11.13;6.93;;;10.40;61.80;;;;;;10266523;28;20268;-86
2022/12/13 13:47:15;;;;;;;10.63;6.70;;;9.40;60.50;;;;;;10254460;28;20298;-83
2022/12/13 13:52:24;;;;;;;9.73;5.93;;;9.30;47.30;;;;;;10274231;28;20700;-84
2022/12/13 13:57:45;;;;;;;10.73;6.03;;;9.30;50.60;;;;;;10276370;28;20255;-84
2022/12/13 14:09:24;;;;;;;9.77;5.57;;;7.60;58.30;;;;;;9999221;23;10002245;-96
2022/12/13 14:15:21;;;;;;;12.00;6.00;;;7.40;58.50;;;;;;10304930;28;20208;-94
2022/12/13 14:20:56;;;;;;;10.97;5.30;;;6.90;62.60;;;;;;10314362;28;20212;-96
2022/12/13 14:26:27;;;;;;;7.80;4.07;;;6.70;75.30;;;;;;10364796;23;20231;-81
2022/12/13 14:36:41;;;;;;;4.23;2.37;;;2.70;69.30;;;;;;10245510;28;20246;-81
2022/12/13 14:41:55;;;;;;;9.97;6.30;;;6.10;95.80;;;;;;10248484;29;20277;-82
2022/12/13 14:47:04;;;;;;;8.20;5.17;;;6.80;66.30;;;;;;10249251;29;20214;-82
2022/12/13 14:52:29;;;;;;;12.50;7.40;;;8.00;63.40;;;;;;10227737;29;20259;-82
2022/12/13 14:57:33;;;;;;;10.30;6.73;;;7.60;59.50;;;;;;10232179;29;20276;-81
2022/12/13 15:02:36;;;;;;;11.43;7.20;;;8.10;58.70;;;;;;10251535;29;20204;-80
2022/12/13 15:07:40;;;;;;;15.37;7.57;;;8.60;55.20;;;;;;10251197;29;20213;-82
2022/12/13 15:12:44;;;;;;;11.03;7.63;;;8.50;55.40;;;;;;10251333;29;20197;-82
2022/12/13 15:17:46;;;;;;;13.93;7.40;;;8.90;48.90;;;;;;10233397;29;20229;-82
2022/12/13 15:23:03;;;;;;;11.93;8.27;;;7.60;50.90;;;;;;10249764;28;20246;-82
2022/12/13 15:28:12;;;;;;;6.73;4.13;;;7.80;53.70;;;;;;10254414;29;20275;-81
2022/12/13 15:33:25;;;;;;;9.77;6.60;;;7.30;67.70;;;;;;10269780;28;20260;-81
2022/12/13 15:38:40;;;;;;;10.17;6.53;;;6.40;57.70;;;;;;10274111;28;20253;-82
2022/12/13 15:43:49;;;;;;;13.30;8.07;;;6.20;66.30;;;;;;10276687;28;20220;-82
2022/12/13 15:48:52;;;;;;;22.97;13.07;;;6.60;70.60;;;;;;10278413;28;20255;-82
2022/12/13 15:54:04;;;;;;;14.13;8.57;;;6.60;59.70;;;;;;10282994;28;20738;-82
2022/12/13 15:59:28;;;;;;;19.20;11.63;;;5.90;70.20;;;;;;10276181;28;20830;-82
2022/12/13 16:04:31;;;;;;;17.70;11.03;;;4.90;72.20;;;;;;10267170;28;20210;-82
2022/12/13 16:09:37;;;;;;;18.70;12.47;;;4.60;79.60;;;;;;10271334;28;20236;-82
2022/12/13 16:14:45;;;;;;;16.53;11.10;;;3.80;80.40;;;;;;10249544;28;20236;-82
2022/12/13 16:19:57;;;;;;;11.07;7.13;;;3.10;86.70;;;;;;10226318;29;20260;-82
2022/12/13 16:25:18;;;;;;;22.70;12.50;;;3.70;99.90;;;;;;10275812;28;20239;-82
2022/12/13 16:30:27;;;;;;;62.43;16.13;;;4.60;93.60;;;;;;10314369;22;20219;-84
2022/12/13 16:35:29;;;;;;;32.17;12.87;;;7.10;70.20;;;;;;10351284;28;20198;-82
2022/12/13 16:40:32;;;;;;;30.90;13.17;;;5.60;54.10;;;;;;10379027;28;20275;-82
2022/12/13 16:45:39;;;;;;;28.03;13.83;;;4.80;71.30;;;;;;10353288;28;20198;-82
2022/12/13 16:50:50;;;;;;;27.83;13.80;;;4.20;73.20;;;;;;10362462;28;20203;-82
2022/12/13 16:55:59;;;;;;;21.53;12.23;;;3.60;83.50;;;;;;10352882;28;20258;-81
2022/12/13 17:01:08;;;;;;;29.47;13.30;;;3.20;82.40;;;;;;10361014;28;20222;-81
2022/12/13 17:06:14;;;;;;;27.07;13.23;;;3.10;92.40;;;;;;10338557;28;20196;-82
2022/12/13 17:11:17;;;;;;;35.23;13.77;;;3.50;91.30;;;;;;10359560;28;20201;-82
2022/12/13 17:16:20;;;;;;;45.87;14.87;;;3.80;92.50;;;;;;10380387;28;20204;-82
2022/12/13 17:21:24;;;;;;;43.10;13.97;;;4.00;92.50;;;;;;10363980;28;20231;-82
2022/12/13 17:26:28;;;;;;;32.27;11.43;;;4.00;93.10;;;;;;10351210;28;20200;-84
2022/12/13 17:31:31;;;;;;;28.43;11.07;;;4.70;90.50;;;;;;10380812;28;20228;-84
2022/12/13 17:36:37;;;;;;;18.53;11.50;;;4.50;90.90;;;;;;10415327;28;20198;-83
2022/12/13 17:41:40;;;;;;;22.33;11.40;;;3.90;82.10;;;;;;10360511;28;20220;-83
2022/12/13 17:46:43;;;;;;;20.90;10.47;;;3.20;90.20;;;;;;10385681;28;20208;-82
2022/12/13 17:51:56;;;;;;;19.87;10.17;;;2.60;91.60;;;;;;10382703;28;20212;-81
2022/12/13 17:56:59;;;;;;;30.70;11.30;;;1.90;94.80;;;;;;10366739;28;20203;-80
2022/12/13 18:02:01;;;;;;;27.33;13.73;;;2.70;99.90;;;;;;10369703;23;20663;-82
2022/12/13 18:07:04;;;;;;;23.53;9.73;;;3.10;93.90;;;;;;10373592;28;20243;-82
2022/12/13 18:12:07;;;;;;;33.93;10.40;;;4.10;94.50;;;;;;10347492;28;20263;-81
2022/12/13 18:17:09;;;;;;;26.50;10.10;;;4.70;97.90;;;;;;10331074;28;20229;-81
2022/12/13 18:22:12;;;;;;;17.73;9.63;;;5.30;90.20;;;;;;10331451;28;20226;-82
2022/12/13 18:27:14;;;;;;;20.90;10.80;;;4.40;79.00;;;;;;10329411;28;20295;-82
2022/12/13 18:32:16;;;;;;;24.33;11.97;;;2.50;78.10;;;;;;10313565;28;20290;-81
2022/12/13 18:37:19;;;;;;;34.60;18.73;;;1.30;92.30;;;;;;10318402;28;20216;-80
2022/12/13 18:42:24;;;;;;;49.03;26.27;;;0.90;97.10;;;;;;10315086;28;20229;-82
2022/12/13 18:47:26;;;;;;;56.77;29.03;;;1.20;99.40;;;;;;10318282;28;20262;-81
2022/12/13 18:52:29;;;;;;;48.53;24.40;;;1.20;99.90;;;;;;10324697;28;20239;-87
2022/12/13 18:57:32;;;;;;;68.10;35.10;;;1.30;99.90;;;;;;10310889;28;20215;-81
2022/12/13 19:02:34;;;;;;;55.07;30.40;;;1.10;96.30;;;;;;10319511;28;20249;-81
2022/12/13 19:07:39;;;;;;;51.23;28.13;;;1.50;99.90;;;;;;10320038;28;20208;-79
2022/12/13 19:12:44;;;;;;;63.57;31.40;;;2.00;97.80;;;;;;10322044;28;20230;-80
2022/12/13 19:17:55;;;;;;;48.13;23.23;;;1.80;98.00;;;;;;10320054;28;20268;-80
2022/12/13 19:22:59;;;;;;;57.40;27.57;;;2.10;99.90;;;;;;10341586;28;20255;-81
2022/12/13 19:28:02;;;;;;;60.93;31.80;;;2.30;98.80;;;;;;9617213;28;10000113;-80
2022/12/13 19:33:06;;;;;;;36.47;18.50;;;2.70;94.90;;;;;;9979723;28;9999765;-81
2022/12/13 19:38:09;;;;;;;69.80;38.97;;;3.60;99.90;;;;;;10300178;28;20232;-80
2022/12/13 19:43:11;;;;;;;82.80;40.33;;;2.10;86.50;;;;;;10325966;28;20197;-81
2022/12/13 19:48:14;;;;;;;85.53;38.03;;;-0.10;99.20;;;;;;10340776;28;20243;-82
2022/12/13 19:53:17;;;;;;;48.77;21.37;;;-0.80;99.90;;;;;;10329585;28;20271;-81
2022/12/13 19:58:19;;;;;;;41.47;20.30;;;-0.20;99.90;;;;;;10345803;28;20225;-82
2022/12/13 20:03:22;;;;;;;65.03;29.77;;;0.80;99.90;;;;;;10324107;28;20229;-82
2022/12/13 20:08:25;;;;;;;39.83;20.87;;;1.40;99.90;;;;;;10338328;28;20205;-82
2022/12/13 20:13:28;;;;;;;52.10;25.87;;;2.50;99.90;;;;;;10327402;28;20201;-82
2022/12/13 20:18:32;;;;;;;53.10;25.80;;;3.00;99.90;;;;;;10345477;28;20224;-82
2022/12/13 20:23:36;;;;;;;64.80;34.07;;;2.20;99.90;;;;;;10323703;28;20277;-82
2022/12/13 20:28:38;;;;;;;73.03;36.73;;;1.40;99.90;;;;;;10316937;28;20241;-81
2022/12/13 20:33:41;;;;;;;59.17;31.80;;;0.30;99.90;;;;;;10333347;28;20212;-82
2022/12/13 20:38:44;;;;;;;65.03;33.47;;;-0.20;99.90;;;;;;10334602;28;20242;-82
2022/12/13 20:43:54;;;;;;;73.87;37.00;;;-0.50;99.90;;;;;;10329596;28;20845;-82
2022/12/13 20:48:59;;;;;;;64.57;35.93;;;-0.60;99.90;;;;;;10335026;28;20669;-82
2022/12/13 20:54:01;;;;;;;91.57;46.13;;;-1.20;99.90;;;;;;10332888;28;20207;-82
2022/12/13 20:59:06;;;;;;;88.33;41.97;;;-1.70;99.90;;;;;;10317943;28;20681;-83
2022/12/13 21:04:10;;;;;;;94.57;50.50;;;-2.10;99.90;;;;;;10316084;28;20236;-83
2022/12/13 21:09:12;;;;;;;106.10;55.77;;;-2.50;99.90;;;;;;10316679;28;20216;-83
2022/12/13 21:14:20;;;;;;;76.53;44.40;;;-2.90;99.90;;;;;;10329127;28;20207;-82
2022/12/13 21:19:31;;;;;;;86.73;45.67;;;-3.10;99.90;;;;;;10334328;28;20243;-83
2022/12/13 21:24:40;;;;;;;95.43;52.60;;;-3.20;99.90;;;;;;10322188;28;20208;-82
2022/12/13 21:29:43;;;;;;;116.03;56.90;;;-3.30;99.90;;;;;;10333515;28;20203;-83
2022/12/13 21:34:45;;;;;;;95.63;51.10;;;-3.40;99.90;;;;;;10332588;28;20237;-82
2022/12/13 21:39:48;;;;;;;85.50;43.97;;;-3.50;99.90;;;;;;10332002;28;20250;-83
2022/12/13 21:44:50;;;;;;;84.20;44.73;;;-3.70;99.90;;;;;;10334106;28;20247;-83
2022/12/13 21:49:53;;;;;;;70.93;40.37;;;-3.60;99.90;;;;;;10331617;28;20198;-82
2022/12/13 21:54:55;;;;;;;103.17;60.77;;;-3.70;99.90;;;;;;10341558;28;20616;-82
2022/12/13 22:00:17;;;;;;;111.00;64.90;;;-4.30;99.90;;;;;;10329411;28;20967;-81
2022/12/13 22:05:20;;;;;;;117.22;69.60;;;;;;;;;;10267663;28;20483;-81
2022/12/13 22:10:23;;;;;;;119.73;62.90;;;;;;;;;;10251566;29;20275;-79
2022/12/13 22:15:27;;;;;;;130.77;73.17;;;;;;;;;;10247045;29;20479;-80
2022/12/13 22:20:30;;;;;;;121.13;73.45;;;;;;;;;;10248180;29;20582;-80
2022/12/13 22:25:34;;;;;;;125.47;73.15;;;-6.00;99.90;;;;;;10249239;29;20467;-80
2022/12/13 22:30:37;;;;;;;122.47;64.60;;;-6.10;99.90;;;;;;10243529;29;20199;-80
2022/12/13 22:35:39;;;;;;;122.87;66.13;;;-6.20;99.90;;;;;;10236709;28;20264;-79
2022/12/13 22:40:42;;;;;;;132.50;72.83;;;;;;;;;;10229974;28;20255;-80
2022/12/13 22:45:45;;;;;;;125.37;67.50;;;-6.30;99.90;;;;;;10211914;29;20195;-79
2022/12/13 22:50:47;;;;;;;124.63;74.55;;;-6.40;99.90;;;;;;10231908;29;21023;-82
2022/12/13 22:55:50;;;;;;;111.20;60.73;;;-6.50;99.90;;;;;;10249855;29;20202;-80
2022/12/13 23:00:52;;;;;;;83.10;39.47;;;-6.60;99.90;;;;;;10262188;28;20265;-80
2022/12/13 23:05:55;;;;;;;42.67;22.70;;;-6.90;99.90;;;;;;10329152;28;20283;-81
2022/12/13 23:16:22;;;;;;;72.63;37.60;;;-6.60;99.90;;;;;;10326948;28;20201;-80
2022/12/13 23:21:26;;;;;;;72.67;35.77;;;-6.00;99.90;;;;;;10329621;28;20798;-81
2022/12/13 23:26:30;;;;;;;65.20;32.43;;;-5.40;99.90;;;;;;10328827;28;20280;-81
2022/12/13 23:31:35;;;;;;;62.47;32.07;;;-4.30;99.90;;;;;;10321636;28;20197;-81
2022/12/13 23:36:38;;;;;;;73.77;35.83;;;-3.60;99.90;;;;;;10327960;28;20213;-81
2022/12/13 23:41:40;;;;;;;69.87;36.17;;;-3.40;99.90;;;;;;10328383;28;20290;-81
2022/12/13 23:46:43;;;;;;;68.97;34.20;;;-3.20;99.90;;;;;;10333674;28;20237;-80
2022/12/13 23:51:50;;;;;;;72.07;36.43;;;-2.90;99.90;;;;;;10335722;28;20287;-80
2022/12/13 23:56:53;;;;;;;76.07;35.07;;;-2.60;99.90;;;;;;10335421;28;20295;-80
